createdAt,value
2023-03-15T00:01:24.235Z,6.60
2023-03-15T00:03:55.049Z,6.33
2023-03-15T00:06:23.256Z,6.73
2023-03-15T00:08:52.118Z,5.77
2023-03-15T00:11:20.730Z,5.50
2023-03-15T00:13:48.768Z,4.80
2023-03-15T00:16:18.237Z,3.97
2023-03-15T00:18:47.271Z,4.10
2023-03-15T00:21:16.891Z,3.50
2023-03-15T00:23:44.961Z,3.70
2023-03-15T00:26:13.096Z,3.30
2023-03-15T00:28:41.392Z,3.63
2023-03-15T00:31:14.537Z,4.17
2023-03-15T00:33:42.831Z,4.33
2023-03-15T00:36:11.717Z,3.97
2023-03-15T00:38:44.036Z,4.20
2023-03-15T00:41:14.050Z,4.60
2023-03-15T00:43:42.712Z,4.50
2023-03-15T00:46:11.968Z,3.80
2023-03-15T00:48:40.222Z,4.13
2023-03-15T00:51:10.895Z,4.67
2023-03-15T00:53:41.651Z,6.30
2023-03-15T00:56:12.206Z,4.70
2023-03-15T00:58:40.573Z,4.60
2023-03-15T01:01:09.401Z,5.20
2023-03-15T01:03:39.345Z,13.07
2023-03-15T01:06:08.275Z,22.47
2023-03-15T01:08:36.596Z,25.33
2023-03-15T01:11:08.740Z,16.17
2023-03-15T01:13:37.864Z,5.23
2023-03-15T01:16:06.755Z,5.00
2023-03-15T01:18:34.798Z,5.30
2023-03-15T01:21:03.754Z,5.43
2023-03-15T01:23:32.072Z,4.70
2023-03-15T01:26:01.309Z,5.73
2023-03-15T01:28:30.981Z,5.47
2023-03-15T01:31:00.079Z,4.60
2023-03-15T01:33:28.622Z,5.03
2023-03-15T01:36:01.243Z,4.67
2023-03-15T01:38:30.915Z,4.47
2023-03-15T01:40:59.571Z,5.37
2023-03-15T01:43:31.823Z,4.90
2023-03-15T01:46:09.386Z,4.60
2023-03-15T01:48:45.052Z,5.40
2023-03-15T01:51:22.670Z,4.97
2023-03-15T01:53:54.189Z,4.40
2023-03-15T01:56:24.394Z,4.13
2023-03-15T01:58:54.674Z,4.00
2023-03-15T02:01:23.242Z,3.50
2023-03-15T02:03:57.432Z,4.13
2023-03-15T02:06:34.839Z,3.10
2023-03-15T02:09:07.877Z,3.17
2023-03-15T02:11:39.353Z,3.80
2023-03-15T02:14:11.024Z,3.63
2023-03-15T02:16:41.302Z,4.20
2023-03-15T02:19:27.336Z,5.37
2023-03-15T02:22:02.409Z,4.10
2023-03-15T02:24:39.697Z,3.70
2023-03-15T02:27:08.107Z,4.00
2023-03-15T02:29:37.660Z,4.43
2023-03-15T02:32:06.078Z,4.07
2023-03-15T02:34:34.138Z,3.97
2023-03-15T02:37:04.251Z,3.03
2023-03-15T02:39:32.290Z,3.80
2023-03-15T02:42:01.852Z,3.27
2023-03-15T02:44:33.363Z,3.10
2023-03-15T02:47:08.214Z,3.40
2023-03-15T02:49:39.455Z,3.20
2023-03-15T02:52:09.968Z,3.13
2023-03-15T02:54:39.278Z,3.00
2023-03-15T02:57:09.665Z,2.70
2023-03-15T02:59:37.927Z,2.53
2023-03-15T03:02:07.867Z,3.00
2023-03-15T03:04:36.167Z,2.70
2023-03-15T03:07:04.519Z,2.87
2023-03-15T03:09:40.070Z,2.67
2023-03-15T03:12:09.088Z,2.43
2023-03-15T03:14:37.185Z,2.20
2023-03-15T03:17:10.703Z,2.43
2023-03-15T03:19:40.144Z,1.70
2023-03-15T03:22:08.431Z,1.87
2023-03-15T03:24:36.430Z,1.77
2023-03-15T03:27:04.878Z,2.10
2023-03-15T03:29:35.651Z,1.90
2023-03-15T03:32:06.562Z,2.60
2023-03-15T03:34:36.353Z,2.60
2023-03-15T03:37:04.632Z,2.47
2023-03-15T03:39:52.998Z,2.77
2023-03-15T03:42:21.020Z,3.57
2023-03-15T03:44:50.285Z,3.70
2023-03-15T03:47:19.538Z,4.00
2023-03-15T03:49:48.937Z,3.50
2023-03-15T03:52:17.226Z,3.80
2023-03-15T03:54:46.153Z,3.80
2023-03-15T03:57:14.164Z,4.40
2023-03-15T03:59:42.573Z,4.60
2023-03-15T04:02:11.871Z,4.80
2023-03-15T04:04:44.836Z,4.33
2023-03-15T04:07:19.917Z,4.43
2023-03-15T04:09:49.060Z,4.60
2023-03-15T04:12:17.430Z,5.00
2023-03-15T04:14:47.278Z,4.47
2023-03-15T04:17:19.271Z,4.80
2023-03-15T04:19:47.660Z,4.43
2023-03-15T04:22:21.125Z,5.73
2023-03-15T04:25:15.030Z,4.50
2023-03-15T04:27:58.476Z,4.57
2023-03-15T04:30:46.481Z,4.07
2023-03-15T04:33:37.908Z,3.90
2023-03-15T04:36:09.198Z,4.20
2023-03-15T04:39:07.265Z,4.70
2023-03-15T04:41:57.825Z,4.10
2023-03-15T04:44:48.736Z,4.07
2023-03-15T04:47:16.765Z,4.30
2023-03-15T04:50:08.971Z,4.50
2023-03-15T04:53:09.268Z,4.43
2023-03-15T04:56:04.314Z,4.70
2023-03-15T04:58:35.700Z,4.37
2023-03-15T05:01:30.097Z,4.00
2023-03-15T05:04:22.041Z,4.40
2023-03-15T05:06:57.516Z,4.00
2023-03-15T05:09:46.198Z,4.20
2023-03-15T05:12:28.094Z,3.70
2023-03-15T05:15:16.202Z,4.50
2023-03-15T05:18:09.861Z,5.03
2023-03-15T05:21:01.082Z,4.50
2023-03-15T05:23:52.392Z,4.67
2023-03-15T05:26:54.157Z,4.70
2023-03-15T05:29:43.804Z,5.07
2023-03-15T05:32:37.604Z,5.23
2023-03-15T05:35:33.421Z,5.47
2023-03-15T05:38:31.218Z,4.97
2023-03-15T05:41:18.537Z,5.73
2023-03-15T05:44:09.507Z,5.57
2023-03-15T05:46:57.299Z,8.00
2023-03-15T05:49:48.679Z,6.00
2023-03-15T05:52:42.870Z,5.60
2023-03-15T05:55:22.204Z,6.07
2023-03-15T05:58:10.534Z,6.67
2023-03-15T06:00:38.576Z,7.20
2023-03-15T06:03:18.625Z,6.90
2023-03-15T06:05:58.035Z,6.90
2023-03-15T06:08:35.458Z,7.47
2023-03-15T06:11:03.665Z,7.30
2023-03-15T06:13:33.182Z,7.87
2023-03-15T06:16:06.405Z,7.23
2023-03-15T06:18:38.543Z,8.63
2023-03-15T06:21:06.740Z,7.73
2023-03-15T06:23:34.783Z,7.80
2023-03-15T06:26:02.816Z,7.10
2023-03-15T06:28:32.151Z,8.37
2023-03-15T06:31:08.244Z,7.77
2023-03-15T06:33:42.448Z,8.33
2023-03-15T06:36:13.518Z,7.13
2023-03-15T06:38:41.978Z,8.37
2023-03-15T06:41:12.486Z,8.50
2023-03-15T06:43:41.068Z,11.93
2023-03-15T06:46:09.073Z,8.27
2023-03-15T06:48:42.780Z,7.67
2023-03-15T06:51:14.143Z,8.90
2023-03-15T06:53:42.815Z,8.97
2023-03-15T06:56:11.274Z,8.70
2023-03-15T06:58:39.377Z,8.90
2023-03-15T07:01:07.585Z,8.60
2023-03-15T07:03:35.754Z,8.30
2023-03-15T07:06:03.861Z,8.43
2023-03-15T07:08:33.415Z,9.60
2023-03-15T07:11:01.616Z,9.33
2023-03-15T07:13:29.689Z,8.97
2023-03-15T07:15:57.909Z,9.23
2023-03-15T07:18:26.043Z,10.30
2023-03-15T07:20:57.997Z,9.30
2023-03-15T07:23:26.404Z,9.30
2023-03-15T07:25:56.580Z,9.77
2023-03-15T07:28:25.612Z,9.80
2023-03-15T07:30:55.322Z,8.70
2023-03-15T07:33:24.167Z,9.60
2023-03-15T07:35:53.508Z,10.03
2023-03-15T07:38:22.466Z,9.30
2023-03-15T07:40:50.489Z,10.30
2023-03-15T07:43:20.341Z,10.43
2023-03-15T07:45:51.338Z,10.10
2023-03-15T07:48:19.375Z,12.03
2023-03-15T07:50:47.460Z,12.37
2023-03-15T07:53:15.787Z,13.50
2023-03-15T07:55:44.942Z,13.50
2023-03-15T07:58:12.998Z,12.03
2023-03-15T08:00:42.752Z,11.50
2023-03-15T08:03:10.994Z,12.00
2023-03-15T08:05:39.906Z,11.37
2023-03-15T08:08:08.464Z,11.03
2023-03-15T08:10:36.534Z,13.20
2023-03-15T08:13:04.581Z,11.63
2023-03-15T08:15:32.607Z,11.53
2023-03-15T08:18:02.067Z,11.13
2023-03-15T08:20:30.316Z,11.97
2023-03-15T08:22:58.435Z,11.50
2023-03-15T08:25:27.348Z,9.90
2023-03-15T08:27:55.389Z,11.13
2023-03-15T08:30:23.989Z,10.63
2023-03-15T08:32:52.796Z,9.80
2023-03-15T08:35:23.237Z,10.77
2023-03-15T08:37:52.507Z,10.23
2023-03-15T08:40:24.815Z,10.77
2023-03-15T08:42:53.370Z,11.57
2023-03-15T08:45:21.878Z,10.43
2023-03-15T08:47:49.924Z,14.40
2023-03-15T08:50:19.117Z,8.13
2023-03-15T08:52:48.470Z,8.60
2023-03-15T08:55:16.618Z,7.67
2023-03-15T08:57:44.793Z,7.83
2023-03-15T09:00:17.953Z,9.10
2023-03-15T09:02:48.592Z,9.30
2023-03-15T09:05:16.996Z,9.13
2023-03-15T09:07:45.714Z,9.60
2023-03-15T09:10:17.184Z,9.83
2023-03-15T09:12:46.769Z,6.40
2023-03-15T09:15:15.612Z,6.73
2023-03-15T09:17:44.306Z,6.83
2023-03-15T09:20:16.598Z,7.40
2023-03-15T09:22:50.288Z,6.00
2023-03-15T09:25:20.367Z,6.70
2023-03-15T09:27:48.458Z,6.20
